Time;durP1;ratioP1;P1;durP2;ratioP2;P2;SDS_P1;SDS_P2;PMS_P1;PMS_P2;Temp;Humidity;BMP_temperature;BMP_pressure;BME280_temperature;BME280_humidity;BME280_pressure;Samples;Min_cycle;Max_cycle;Signal;HPM_P1;HPM_P2
2021/12/30 00:01:38;;;;;;;;;;;9.70;99.00;;;;;;5080601;28;19923;-68
2021/12/30 00:04:04;;;;;;;;;;;9.70;99.10;;;;;;5077974;28;19944;-68
2021/12/30 00:06:36;;;;;;;;;;;9.80;99.10;;;;;;5087457;28;19912;-68
2021/12/30 00:09:03;;;;;;;;;;;9.80;99.10;;;;;;5075153;28;19916;-68
2021/12/30 00:11:28;;;;;;;;;;;9.80;99.10;;;;;;5085138;28;20349;-68
2021/12/30 00:13:55;;;;;;;;;;;9.70;99.10;;;;;;5073426;28;19952;-68
2021/12/30 00:16:20;;;;;;;;;;;9.70;99.00;;;;;;5083864;28;19957;-67
2021/12/30 00:18:46;;;;;;;;;;;9.70;99.10;;;;;;5074349;28;19994;-67
2021/12/30 00:21:12;;;;;;;;;;;9.70;99.00;;;;;;5083223;28;19911;-68
2021/12/30 00:23:38;;;;;;;;;;;9.70;99.30;;;;;;5073635;28;19912;-68
2021/12/30 00:26:03;;;;;;;;;;;9.70;99.00;;;;;;5090640;28;19923;-68
2021/12/30 00:28:29;;;;;;;;;;;9.70;99.10;;;;;;5080039;28;19912;-68
2021/12/30 00:30:55;;;;;;;;;;;9.70;99.10;;;;;;5083043;28;19916;-67
2021/12/30 00:33:21;;;;;;;;;;;9.70;99.10;;;;;;5074025;28;19922;-68
2021/12/30 00:35:47;;;;;;;;;;;9.80;99.10;;;;;;5084338;28;19912;-68
2021/12/30 00:38:13;;;;;;;;;;;9.70;99.00;;;;;;5086453;28;20369;-68
2021/12/30 00:40:38;;;;;;;;;;;9.70;99.00;;;;;;5088738;28;20004;-68
2021/12/30 00:43:04;;;;;;;;;;;9.70;99.10;;;;;;5084081;28;20311;-68
2021/12/30 00:45:31;;;;;;;;;;;9.70;99.00;;;;;;5086329;28;19977;-68
2021/12/30 00:47:56;;;;;;;;;;;9.70;99.10;;;;;;5082633;28;20520;-68
2021/12/30 00:50:22;;;;;;;;;;;9.70;99.10;;;;;;5080803;28;19916;-68
2021/12/30 00:52:48;;;;;;;;;;;9.70;99.00;;;;;;5080100;28;19908;-68
2021/12/30 00:55:13;;;;;;;;;;;9.70;99.00;;;;;;5082495;28;19920;-68
2021/12/30 00:57:39;;;;;;;;;;;9.70;99.00;;;;;;5081756;28;19991;-68
2021/12/30 01:00:06;;;;;;;;;;;9.70;99.00;;;;;;5077621;28;19916;-68
2021/12/30 01:02:32;;;;;;;;;;;9.70;99.00;;;;;;5087518;28;19907;-67
2021/12/30 01:04:57;;;;;;;;;;;9.70;99.00;;;;;;5074532;28;19985;-67
2021/12/30 01:07:23;;;;;;;;;;;9.70;99.00;;;;;;5085155;28;19994;-67
2021/12/30 01:09:49;;;;;;;;;;;9.70;99.00;;;;;;5078719;28;20006;-67
2021/12/30 01:12:15;;;;;;;;;;;9.70;99.00;;;;;;5080741;28;19912;-67
2021/12/30 01:14:45;;;;;;;;;;;9.70;99.00;;;;;;5082898;28;19916;-67
2021/12/30 01:17:26;;;;;;;;;;;9.70;99.00;;;;;;5079417;28;19917;-67
2021/12/30 01:19:52;;;;;;;;;;;9.70;98.90;;;;;;5079405;28;19920;-67
2021/12/30 01:22:19;;;;;;;;;;;9.70;99.00;;;;;;5082312;28;19961;-67
2021/12/30 01:24:45;;;;;;;;;;;9.70;99.00;;;;;;5075209;28;20320;-67
2021/12/30 01:27:11;;;;;;;;;;;9.70;99.00;;;;;;5081331;28;19909;-67
2021/12/30 01:29:37;;;;;;;;;;;9.70;99.10;;;;;;5080469;28;19938;-67
2021/12/30 01:32:03;;;;;;;;;;;9.70;99.10;;;;;;5079471;28;20371;-67
2021/12/30 01:34:28;;;;;;;;;;;9.70;99.10;;;;;;5086614;28;19924;-67
2021/12/30 01:36:55;;;;;;;;;;;9.70;99.10;;;;;;5082638;28;19916;-67
2021/12/30 01:39:22;;;;;;;;;;;9.70;99.10;;;;;;5088455;28;19916;-67
2021/12/30 01:41:48;;;;;;;;;;;9.70;99.10;;;;;;5081582;28;19913;-67
2021/12/30 01:44:14;;;;;;;;;;;9.70;99.10;;;;;;5089429;28;19943;-67
2021/12/30 01:46:40;;;;;;;;;;;9.70;99.00;;;;;;5088956;28;19954;-67
2021/12/30 01:49:07;;;;;;;;;;;9.70;99.00;;;;;;5088235;28;19927;-67
2021/12/30 01:51:32;;;;;;;;;;;9.70;99.00;;;;;;5080858;28;19919;-67
2021/12/30 01:53:58;;;;;;;;;;;9.70;99.00;;;;;;5092699;28;19985;-67
2021/12/30 01:56:24;;;;;;;;;;;9.70;99.10;;;;;;5086288;28;19958;-68
2021/12/30 01:58:49;;;;;;;;;;;9.70;99.10;;;;;;5090313;28;19932;-67
2021/12/30 02:01:15;;;;;;;;;;;9.70;99.10;;;;;;5088743;28;19912;-67
2021/12/30 02:03:40;;;;;;;;;;;9.80;99.20;;;;;;5091208;28;19923;-67
2021/12/30 02:06:06;;;;;;;;;;;9.80;99.10;;;;;;5088210;28;20537;-67
2021/12/30 02:08:31;;;;;;;;;;;9.70;99.20;;;;;;5083579;28;19918;-67
2021/12/30 02:10:57;;;;;;;;;;;9.80;99.10;;;;;;5088935;28;19920;-67
2021/12/30 02:13:22;;;;;;;;;;;9.80;99.20;;;;;;5081898;28;19912;-67
2021/12/30 02:15:48;;;;;;;;;;;9.80;99.20;;;;;;5092241;28;19922;-67
2021/12/30 02:18:14;;;;;;;;;;;9.80;99.10;;;;;;5085576;28;20014;-68
2021/12/30 02:20:41;;;;;;;;;;;9.70;99.10;;;;;;5090448;28;20381;-67
2021/12/30 02:23:07;;;;;;;;;;;9.80;99.20;;;;;;5079358;28;19947;-67
2021/12/30 02:25:33;;;;;;;;;;;9.80;99.10;;;;;;5091010;28;19919;-67
2021/12/30 02:27:58;;;;;;;;;;;9.80;99.20;;;;;;5081100;28;19912;-67
2021/12/30 02:30:24;;;;;;;;;;;9.80;99.30;;;;;;5088496;28;19916;-67
2021/12/30 02:32:49;;;;;;;;;;;9.80;99.20;;;;;;5078473;28;20361;-67
2021/12/30 02:35:15;;;;;;;;;;;9.80;99.20;;;;;;5089265;28;19908;-67
2021/12/30 02:37:40;;;;;;;;;;;9.80;99.20;;;;;;5101283;28;19931;-67
2021/12/30 02:40:06;;;;;;;;;;;9.80;99.10;;;;;;5088450;28;19930;-67
2021/12/30 02:42:31;;;;;;;;;;;9.80;99.10;;;;;;5085527;28;19908;-67
2021/12/30 02:44:57;;;;;;;;;;;9.80;99.10;;;;;;5086878;28;19916;-67
2021/12/30 02:47:23;;;;;;;;;;;9.80;99.20;;;;;;5083667;28;20026;-67
2021/12/30 02:49:48;;;;;;;;;;;9.80;99.20;;;;;;5084362;28;19925;-68
2021/12/30 02:52:14;;;;;;;;;;;9.80;99.00;;;;;;5089431;28;19947;-67
2021/12/30 02:54:40;;;;;;;;;;;9.80;99.10;;;;;;5083124;28;19926;-67
2021/12/30 02:57:05;;;;;;;;;;;9.80;99.10;;;;;;5081880;28;19935;-67
2021/12/30 02:59:31;;;;;;;;;;;9.90;99.10;;;;;;5085442;28;20400;-67
2021/12/30 03:01:57;;;;;;;;;;;9.80;99.00;;;;;;5090025;28;19999;-67
2021/12/30 03:04:22;;;;;;;;;;;9.80;99.00;;;;;;5083610;28;19950;-67
2021/12/30 03:06:51;;;;;;;;;;;9.80;98.90;;;;;;5082511;28;19923;-67
2021/12/30 03:09:16;;;;;;;;;;;9.80;98.90;;;;;;5082314;28;19908;-68
2021/12/30 03:11:42;;;;;;;;;;;9.80;99.00;;;;;;5086540;28;19969;-67
2021/12/30 03:14:07;;;;;;;;;;;9.80;99.00;;;;;;5082339;28;19919;-67
2021/12/30 03:16:35;;;;;;;;;;;9.80;99.00;;;;;;5083786;28;20350;-67
2021/12/30 03:19:01;;;;;;;;;;;9.80;99.10;;;;;;5097993;27;19919;-67
2021/12/30 03:21:27;;;;;;;;;;;9.90;99.10;;;;;;5084673;28;19912;-67
2021/12/30 03:23:53;;;;;;;;;;;9.90;99.10;;;;;;5090846;28;19931;-67
2021/12/30 03:26:20;;;;;;;;;;;9.90;99.10;;;;;;5084392;28;19919;-67
2021/12/30 03:28:46;;;;;;;;;;;9.90;99.10;;;;;;5082138;28;19961;-67
2021/12/30 03:31:12;;;;;;;;;;;9.90;99.10;;;;;;5082022;28;19920;-67
2021/12/30 03:33:38;;;;;;;;;;;9.90;99.20;;;;;;5097423;28;20414;-67
2021/12/30 03:36:04;;;;;;;;;;;9.90;99.10;;;;;;5082856;28;19916;-67
2021/12/30 03:38:31;;;;;;;;;;;9.90;99.10;;;;;;5087388;28;19991;-67
2021/12/30 03:40:57;;;;;;;;;;;9.90;99.10;;;;;;5084644;28;20022;-67
2021/12/30 03:43:22;;;;;;;;;;;9.90;99.10;;;;;;5086442;28;19912;-67
2021/12/30 03:45:48;;;;;;;;;;;9.90;99.10;;;;;;5081196;28;19912;-67
2021/12/30 03:48:13;;;;;;;;;;;9.90;99.20;;;;;;5090826;28;20265;-67
2021/12/30 03:50:43;;;;;;;;;;;9.90;99.10;;;;;;5082350;28;20380;-67
2021/12/30 03:53:09;;;;;;;;;;;9.90;99.20;;;;;;5092237;28;19958;-67
2021/12/30 03:55:35;;;;;;;;;;;9.90;99.20;;;;;;5099095;27;19919;-67
2021/12/30 03:58:00;;;;;;;;;;;9.90;99.20;;;;;;5085916;28;19913;-67
2021/12/30 04:00:27;;;;;;;;;;;9.90;99.20;;;;;;5087046;28;19942;-67
2021/12/30 04:02:52;;;;;;;;;;;10.00;99.20;;;;;;5082965;28;19920;-67
2021/12/30 04:05:18;;;;;;;;;;;10.00;99.30;;;;;;5089148;28;19916;-67
2021/12/30 04:07:44;;;;;;;;;;;10.00;99.30;;;;;;5077245;28;20365;-67
2021/12/30 04:10:12;;;;;;;;;;;10.00;99.30;;;;;;5085018;28;20026;-67
2021/12/30 04:12:38;;;;;;;;;;;10.00;99.30;;;;;;5079603;28;20306;-67
2021/12/30 04:15:04;;;;;;;;;;;10.00;99.40;;;;;;5085480;28;19912;-67
2021/12/30 04:17:29;;;;;;;;;;;10.00;99.50;;;;;;5077006;28;19937;-67
2021/12/30 04:19:55;;;;;;;;;;;10.10;99.50;;;;;;5086652;28;19927;-67
2021/12/30 04:22:20;;;;;;;;;;;10.00;99.30;;;;;;5084116;28;19919;-67
2021/12/30 04:24:46;;;;;;;;;;;10.10;99.40;;;;;;5088832;28;19908;-67
2021/12/30 04:27:12;;;;;;;;;;;10.10;99.50;;;;;;5077455;28;19920;-67
2021/12/30 04:29:37;;;;;;;;;;;10.10;99.50;;;;;;5084435;28;19904;-67
2021/12/30 04:32:03;;;;;;;;;;;10.10;99.40;;;;;;5077868;28;19912;-67
2021/12/30 04:34:29;;;;;;;;;;;10.10;99.70;;;;;;5084858;28;20064;-67
2021/12/30 04:36:58;;;;;;;;;;;10.10;99.50;;;;;;5086541;28;19927;-67
2021/12/30 04:39:28;;;;;;;;;;;10.10;99.50;;;;;;5084892;28;19927;-67
2021/12/30 04:41:53;;;;;;;;;;;10.10;99.60;;;;;;5080288;28;20392;-67
2021/12/30 04:44:19;;;;;;;;;;;10.10;99.60;;;;;;5083197;28;19931;-67
2021/12/30 04:46:45;;;;;;;;;;;10.10;99.60;;;;;;5080224;28;20032;-67
2021/12/30 04:49:10;;;;;;;;;;;10.20;99.60;;;;;;5085148;28;20368;-67
2021/12/30 04:51:36;;;;;;;;;;;10.20;99.60;;;;;;5080474;28;20040;-67
2021/12/30 04:54:02;;;;;;;;;;;10.20;99.50;;;;;;5082848;28;20013;-67
2021/12/30 04:56:27;;;;;;;;;;;10.20;99.50;;;;;;5082216;28;19919;-67
2021/12/30 04:58:53;;;;;;;;;;;10.20;99.60;;;;;;5083701;28;20565;-67
2021/12/30 05:01:19;;;;;;;;;;;10.20;99.50;;;;;;5081573;28;19912;-67
2021/12/30 05:03:44;;;;;;;;;;;10.20;99.40;;;;;;5082661;28;19927;-67
2021/12/30 05:06:10;;;;;;;;;;;10.20;99.50;;;;;;5086802;28;19923;-67
2021/12/30 05:08:35;;;;;;;;;;;10.20;99.40;;;;;;5083876;28;20027;-67
2021/12/30 05:11:01;;;;;;;;;;;10.20;99.50;;;;;;5084500;28;20272;-67
2021/12/30 05:13:26;;;;;;;;;;;10.20;99.50;;;;;;5095398;28;20001;-67
2021/12/30 05:15:52;;;;;;;;;;;10.20;99.60;;;;;;5084351;28;19954;-67
2021/12/30 05:18:19;;;;;;;;;;;10.20;99.50;;;;;;5082389;28;19912;-67
2021/12/30 05:20:45;;;;;;;;;;;10.20;99.40;;;;;;5079979;28;19927;-67
2021/12/30 05:23:10;;;;;;;;;;;10.20;99.40;;;;;;5079570;28;19916;-67
2021/12/30 05:25:36;;;;;;;;;;;10.30;99.50;;;;;;5081743;28;19931;-67
2021/12/30 05:28:02;;;;;;;;;;;10.20;99.40;;;;;;5088926;28;19919;-67
2021/12/30 05:30:27;;;;;;;;;;;10.30;99.40;;;;;;5083558;28;19922;-67
2021/12/30 05:32:54;;;;;;;;;;;10.20;99.50;;;;;;5089914;28;20017;-67
2021/12/30 05:35:20;;;;;;;;;;;10.30;99.30;;;;;;5088059;28;19921;-67
2021/12/30 05:37:45;;;;;;;;;;;10.30;99.50;;;;;;5090503;28;19961;-67
2021/12/30 05:40:13;;;;;;;;;;;10.30;99.50;;;;;;5084775;28;19922;-67
2021/12/30 05:42:38;;;;;;;;;;;10.30;99.40;;;;;;5083018;28;19955;-67
2021/12/30 05:45:04;;;;;;;;;;;10.30;99.40;;;;;;5086255;28;19963;-67
2021/12/30 05:47:30;;;;;;;;;;;10.30;99.30;;;;;;5088093;28;20003;-67
2021/12/30 05:49:55;;;;;;;;;;;10.30;99.30;;;;;;5083204;28;20314;-67
2021/12/30 05:52:21;;;;;;;;;;;10.30;99.40;;;;;;5091913;28;19945;-67
2021/12/30 05:54:47;;;;;;;;;;;10.40;99.30;;;;;;5088530;28;19908;-67
2021/12/30 05:57:12;;;;;;;;;;;10.30;99.60;;;;;;5078613;28;19958;-67
2021/12/30 05:59:38;;;;;;;;;;;10.30;99.40;;;;;;5088476;28;19908;-67
2021/12/30 06:02:04;;;;;;;;;;;10.40;99.50;;;;;;5083185;28;19916;-67
2021/12/30 06:04:29;;;;;;;;;;;10.40;99.60;;;;;;5087587;28;19908;-67
2021/12/30 06:06:55;;;;;;;;;;;10.40;99.60;;;;;;5094820;28;19958;-67
2021/12/30 06:09:25;;;;;;;;;;;10.40;99.60;;;;;;5090813;28;19927;-67
2021/12/30 06:11:51;;;;;;;;;;;10.40;99.50;;;;;;5083575;28;19938;-67
2021/12/30 06:14:17;;;;;;;;;;;10.40;99.40;;;;;;5090602;28;20364;-68
2021/12/30 06:16:42;;;;;;;;;;;10.40;99.70;;;;;;5074331;28;19970;-67
2021/12/30 06:19:08;;;;;;;;;;;10.40;99.70;;;;;;5091491;28;20015;-67
2021/12/30 06:21:33;;;;;;;;;;;10.40;99.80;;;;;;5081654;28;20486;-67
2021/12/30 06:23:59;;;;;;;;;;;10.40;99.70;;;;;;5090050;28;19911;-67
2021/12/30 06:26:24;;;;;;;;;;;10.40;99.60;;;;;;5089764;28;19958;-67
2021/12/30 06:28:50;;;;;;;;;;;10.50;99.60;;;;;;5086712;28;19917;-67
2021/12/30 06:31:15;;;;;;;;;;;10.50;99.60;;;;;;5079533;28;19947;-67
2021/12/30 06:33:41;;;;;;;;;;;10.50;99.60;;;;;;5086523;28;19916;-67
2021/12/30 06:36:07;;;;;;;;;;;10.50;99.70;;;;;;5084850;28;19908;-67
2021/12/30 06:38:33;;;;;;;;;;;10.50;99.70;;;;;;5083998;28;19995;-67
2021/12/30 06:40:58;;;;;;;;;;;10.50;99.70;;;;;;5081752;28;20391;-67
2021/12/30 06:43:24;;;;;;;;;;;10.50;99.60;;;;;;5086685;28;19920;-67
2021/12/30 06:45:49;;;;;;;;;;;10.50;99.80;;;;;;5085080;28;19915;-67
2021/12/30 06:48:15;;;;;;;;;;;10.60;99.80;;;;;;5087003;28;19931;-67
2021/12/30 06:50:54;;;;;;;;;;;10.60;99.80;;;;;;5079367;28;19916;-67
2021/12/30 06:53:20;;;;;;;;;;;10.60;99.80;;;;;;5083040;28;20417;-67
2021/12/30 06:55:46;;;;;;;;;;;10.60;99.90;;;;;;5085082;28;20338;-67
2021/12/30 06:58:12;;;;;;;;;;;10.60;99.90;;;;;;5085619;28;20353;-67
2021/12/30 07:00:38;;;;;;;;;;;10.60;99.90;;;;;;5082805;28;19915;-67
2021/12/30 07:03:03;;;;;;;;;;;10.70;99.90;;;;;;5082526;28;19969;-67
2021/12/30 07:05:29;;;;;;;;;;;10.70;99.90;;;;;;5078352;28;20022;-67
2021/12/30 07:07:54;;;;;;;;;;;10.70;99.90;;;;;;5079650;28;19962;-67
2021/12/30 07:10:20;;;;;;;;;;;10.70;99.90;;;;;;5085570;28;20006;-67
2021/12/30 07:12:45;;;;;;;;;;;10.70;99.90;;;;;;5082635;28;19951;-67
2021/12/30 07:15:11;;;;;;;;;;;10.70;99.80;;;;;;5095703;27;19916;-68
2021/12/30 07:17:36;;;;;;;;;;;10.70;99.90;;;;;;5085947;28;19916;-67
2021/12/30 07:20:05;;;;;;;;;;;10.70;99.90;;;;;;5089126;28;19916;-67
2021/12/30 07:22:31;;;;;;;;;;;10.80;99.90;;;;;;5087208;28;20002;-67
2021/12/30 07:24:56;;;;;;;;;;;10.80;99.90;;;;;;5082496;28;20002;-67
2021/12/30 07:27:22;;;;;;;;;;;10.80;99.90;;;;;;5085944;28;19927;-67
2021/12/30 07:29:47;;;;;;;;;;;10.80;99.90;;;;;;5082255;28;19916;-67
2021/12/30 07:32:13;;;;;;;;;;;10.80;99.90;;;;;;5087161;28;20358;-67
2021/12/30 07:34:38;;;;;;;;;;;10.80;99.90;;;;;;5082983;28;20246;-67
2021/12/30 07:37:04;;;;;;;;;;;10.80;99.90;;;;;;5089728;28;19916;-67
2021/12/30 07:39:29;;;;;;;;;;;10.90;99.90;;;;;;5082379;28;20000;-68
2021/12/30 07:41:55;;;;;;;;;;;10.90;99.90;;;;;;5078303;28;19919;-67
2021/12/30 07:44:20;;;;;;;;;;;10.90;99.90;;;;;;5088522;28;19961;-67
2021/12/30 07:46:46;;;;;;;;;;;10.90;99.90;;;;;;5096188;28;20336;-67
2021/12/30 07:49:11;;;;;;;;;;;10.90;99.90;;;;;;5083902;28;19995;-67
2021/12/30 07:51:37;;;;;;;;;;;10.90;99.90;;;;;;5082059;28;20353;-67
2021/12/30 07:54:03;;;;;;;;;;;10.90;99.90;;;;;;5089115;28;19916;-67
2021/12/30 07:56:28;;;;;;;;;;;10.90;99.90;;;;;;5084341;28;19919;-67
2021/12/30 07:58:54;;;;;;;;;;;10.90;99.90;;;;;;5085871;28;19912;-67
2021/12/30 08:01:19;;;;;;;;;;;11.00;99.90;;;;;;5083944;28;19917;-67
2021/12/30 08:03:45;;;;;;;;;;;10.90;99.90;;;;;;5088859;28;19916;-67
2021/12/30 08:06:10;;;;;;;;;;;10.90;99.90;;;;;;5084302;28;19924;-67
2021/12/30 08:08:36;;;;;;;;;;;11.00;99.90;;;;;;5088504;28;19998;-67
2021/12/30 08:11:01;;;;;;;;;;;11.00;99.90;;;;;;5073053;28;20003;-67
2021/12/30 08:13:27;;;;;;;;;;;10.90;99.90;;;;;;5090394;28;19915;-67
2021/12/30 08:15:53;;;;;;;;;;;11.00;99.90;;;;;;5080425;28;19980;-67
2021/12/30 08:18:19;;;;;;;;;;;11.00;99.90;;;;;;5088019;28;19923;-67
2021/12/30 08:20:45;;;;;;;;;;;11.00;99.90;;;;;;5080663;28;19916;-67
2021/12/30 08:23:10;;;;;;;;;;;11.00;99.90;;;;;;5088702;28;19969;-68
2021/12/30 08:25:36;;;;;;;;;;;11.00;99.90;;;;;;5080590;28;19967;-67
2021/12/30 08:28:01;;;;;;;;;;;11.00;99.90;;;;;;5083584;28;19986;-67
2021/12/30 08:30:27;;;;;;;;;;;11.10;99.90;;;;;;5084065;28;19912;-67
2021/12/30 08:32:52;;;;;;;;;;;11.00;99.90;;;;;;5084599;28;19922;-67
2021/12/30 08:35:21;;;;;;;;;;;11.00;99.90;;;;;;5085842;28;20403;-67
2021/12/30 08:37:47;;;;;;;;;;;11.00;99.90;;;;;;5083463;28;19916;-67
2021/12/30 08:40:13;;;;;;;;;;;11.10;99.90;;;;;;5086389;28;19908;-67
2021/12/30 08:42:39;;;;;;;;;;;11.10;99.90;;;;;;5084495;28;19922;-67
2021/12/30 08:45:05;;;;;;;;;;;11.10;99.90;;;;;;5083105;28;19925;-67
2021/12/30 08:47:31;;;;;;;;;;;11.10;99.90;;;;;;5096114;28;19947;-67
2021/12/30 08:49:57;;;;;;;;;;;11.10;99.90;;;;;;5084686;28;19979;-67
2021/12/30 08:52:24;;;;;;;;;;;11.10;99.90;;;;;;5081754;28;19920;-67
2021/12/30 08:54:49;;;;;;;;;;;11.10;99.90;;;;;;5087439;28;19927;-67
2021/12/30 08:57:16;;;;;;;;;;;11.10;99.90;;;;;;5077968;28;20288;-67
2021/12/30 08:59:42;;;;;;;;;;;11.10;99.90;;;;;;5084222;28;20337;-67
2021/12/30 09:02:08;;;;;;;;;;;11.20;99.90;;;;;;5089065;28;19921;-67
2021/12/30 09:04:34;;;;;;;;;;;11.10;99.90;;;;;;5086105;28;20322;-67
2021/12/30 09:07:00;;;;;;;;;;;11.10;99.90;;;;;;5089948;28;20437;-67
2021/12/30 09:09:25;;;;;;;;;;;11.20;99.90;;;;;;5084581;28;20033;-67
2021/12/30 09:11:51;;;;;;;;;;;11.20;99.90;;;;;;5084329;28;20325;-67
2021/12/30 09:14:17;;;;;;;;;;;11.20;99.90;;;;;;5090965;28;19912;-67
2021/12/30 09:16:43;;;;;;;;;;;11.20;99.90;;;;;;5091730;28;19916;-67
2021/12/30 09:19:09;;;;;;;;;;;11.20;99.90;;;;;;5086501;28;19948;-67
2021/12/30 09:21:39;;;;;;;;;;;11.20;99.90;;;;;;5093231;28;19920;-67
2021/12/30 09:24:05;;;;;;;;;;;11.20;99.90;;;;;;5093080;28;19913;-67
2021/12/30 09:26:31;;;;;;;;;;;11.20;99.90;;;;;;5092792;28;19999;-67
2021/12/30 09:28:56;;;;;;;;;;;11.20;99.90;;;;;;5085008;28;19996;-67
2021/12/30 09:31:22;;;;;;;;;;;11.20;99.90;;;;;;5087011;28;19916;-67
2021/12/30 09:33:47;;;;;;;;;;;11.30;99.90;;;;;;5085512;28;20355;-67
2021/12/30 09:36:13;;;;;;;;;;;11.30;99.90;;;;;;5083261;28;19912;-67
2021/12/30 09:38:38;;;;;;;;;;;11.30;99.90;;;;;;5087081;28;19915;-67
2021/12/30 09:41:04;;;;;;;;;;;11.30;99.90;;;;;;5081063;28;19920;-67
2021/12/30 09:43:30;;;;;;;;;;;11.30;99.90;;;;;;5093844;28;20274;-67
2021/12/30 09:45:55;;;;;;;;;;;11.40;99.90;;;;;;5080339;28;19912;-67
2021/12/30 09:48:21;;;;;;;;;;;11.40;99.90;;;;;;5094466;28;19915;-67
2021/12/30 09:50:48;;;;;;;;;;;11.40;99.90;;;;;;5076355;28;20266;-67
2021/12/30 09:53:17;;;;;;;;;;;11.40;99.90;;;;;;5122018;27;20602;-67
2021/12/30 09:55:43;;;;;;;;;;;11.50;99.90;;;;;;5081934;28;19920;-67
2021/12/30 09:58:08;;;;;;;;;;;11.50;99.90;;;;;;5089531;28;20368;-68
2021/12/30 10:00:34;;;;;;;;;;;11.50;99.90;;;;;;5086744;28;19916;-67
2021/12/30 10:02:59;;;;;;;;;;;11.50;99.90;;;;;;5084435;28;19921;-67
2021/12/30 10:05:27;;;;;;;;;;;11.60;99.90;;;;;;5093802;27;19965;-67
2021/12/30 10:08:07;;;;;;;;;;;11.60;99.90;;;;;;5087100;28;19916;-67
2021/12/30 10:10:33;;;;;;;;;;;11.60;99.90;;;;;;5081098;28;19968;-67
2021/12/30 10:13:00;;;;;;;;;;;11.60;99.90;;;;;;5085011;28;19917;-67
2021/12/30 10:15:29;;;;;;;;;;;11.60;99.90;;;;;;5086772;28;19970;-67
2021/12/30 10:17:56;;;;;;;;;;;11.60;99.90;;;;;;5091545;28;19919;-67
2021/12/30 10:20:24;;;;;;;;;;;11.70;99.90;;;;;;5081208;28;19912;-67
2021/12/30 10:22:50;;;;;;;;;;;11.70;99.90;;;;;;5087282;28;20524;-67
2021/12/30 10:25:28;;;;;;;;;;;11.70;99.90;;;;;;5087490;28;20356;-67
2021/12/30 10:27:54;;;;;;;;;;;11.70;99.90;;;;;;5084089;28;19916;-67
2021/12/30 10:30:30;;;;;;;;;;;11.70;99.90;;;;;;5081063;28;19933;-67
2021/12/30 10:33:08;;;;;;;;;;;11.70;99.90;;;;;;5086621;28;19943;-67
2021/12/30 10:35:35;;;;;;;;;;;11.70;99.90;;;;;;5080796;28;19920;-67
2021/12/30 10:38:01;;;;;;;;;;;11.80;99.90;;;;;;5084001;28;19920;-67
2021/12/30 10:40:28;;;;;;;;;;;11.80;99.90;;;;;;5081738;28;19923;-67
2021/12/30 10:43:13;;;;;;;;;;;11.80;99.90;;;;;;5083907;28;19920;-67
2021/12/30 10:45:38;;;;;;;;;;;11.80;99.90;;;;;;5086896;28;19920;-67
2021/12/30 10:48:07;;;;;;;;;;;11.80;99.90;;;;;;5084659;28;19918;-67
2021/12/30 10:50:32;;;;;;;;;;;11.80;99.90;;;;;;5083365;28;20444;-67
2021/12/30 10:52:58;;;;;;;;;;;11.80;99.90;;;;;;5087757;28;19953;-67
2021/12/30 10:55:24;;;;;;;;;;;11.90;99.90;;;;;;5088223;28;20328;-67
2021/12/30 10:57:50;;;;;;;;;;;11.90;99.90;;;;;;5082642;28;20380;-67
2021/12/30 11:00:28;;;;;;;;;;;11.90;99.90;;;;;;5095297;28;19912;-67
2021/12/30 11:02:54;;;;;;;;;;;11.90;99.90;;;;;;5079576;28;19919;-67
2021/12/30 11:05:19;;;;;;;;;;;11.90;99.90;;;;;;5093888;28;19912;-67
2021/12/30 11:07:46;;;;;;;;;;;11.90;99.90;;;;;;5080394;28;19923;-67
2021/12/30 11:10:13;;;;;;;;;;;11.90;99.90;;;;;;5081240;28;19915;-67
2021/12/30 11:12:44;;;;;;;;;;;12.00;99.90;;;;;;5081343;28;20361;-67
2021/12/30 11:15:20;;;;;;;;;;;12.00;99.90;;;;;;5083996;28;19987;-67
2021/12/30 11:17:46;;;;;;;;;;;12.00;99.90;;;;;;5083843;28;19907;-67
2021/12/30 11:20:12;;;;;;;;;;;11.90;99.90;;;;;;5088081;28;19948;-67
2021/12/30 11:22:38;;;;;;;;;;;11.90;99.90;;;;;;5089592;28;19957;-67
2021/12/30 11:25:05;;;;;;;;;;;12.00;99.90;;;;;;5082994;28;19947;-67
2021/12/30 11:27:31;;;;;;;;;;;11.90;99.90;;;;;;5091516;28;19915;-67
2021/12/30 11:29:59;;;;;;;;;;;11.90;99.90;;;;;;5086082;28;20380;-67
2021/12/30 11:32:29;;;;;;;;;;;11.90;99.90;;;;;;5085261;28;20401;-67
2021/12/30 11:34:55;;;;;;;;;;;12.00;99.90;;;;;;5080510;28;19927;-67
2021/12/30 11:37:21;;;;;;;;;;;12.00;99.90;;;;;;5087125;28;19914;-67
2021/12/30 11:39:48;;;;;;;;;;;12.00;99.90;;;;;;5077782;28;19912;-67
2021/12/30 11:42:21;;;;;;;;;;;12.00;99.90;;;;;;5085067;28;20548;-67
2021/12/30 11:44:54;;;;;;;;;;;12.00;99.90;;;;;;5078393;28;20371;-67
2021/12/30 11:47:36;;;;;;;;;;;12.00;99.90;;;;;;5064275;27;19954;-67
2021/12/30 11:50:04;;;;;;;;;;;12.00;99.90;;;;;;5044136;28;19999;-68
2021/12/30 11:52:46;;;;;;;;;;;12.00;99.90;;;;;;5048341;28;19984;-68
2021/12/30 11:55:30;;;;;;;;;;;12.00;99.90;;;;;;5046856;28;20679;-68
2021/12/30 11:58:16;;;;;;;;;;;12.00;99.90;;;;;;5047882;28;19935;-67
2021/12/30 12:00:41;;;;;;;;;;;12.10;99.90;;;;;;5044445;28;19927;-68
2021/12/30 12:03:36;;;;;;;;;;;12.10;99.90;;;;;;5041526;28;20000;-68
2021/12/30 12:06:03;;;;;;;;;;;12.10;99.90;;;;;;5046371;28;19921;-67
2021/12/30 12:08:29;;;;;;;;;;;12.00;99.90;;;;;;5049229;28;19974;-68
2021/12/30 12:11:15;;;;;;;;;;;12.10;99.90;;;;;;5046038;28;19913;-68
2021/12/30 12:13:41;;;;;;;;;;;12.10;99.90;;;;;;5043877;28;20429;-67
2021/12/30 12:16:07;;;;;;;;;;;12.00;99.90;;;;;;5043685;28;19921;-68
2021/12/30 12:18:32;;;;;;;;;;;12.00;99.90;;;;;;5053918;28;20385;-67
2021/12/30 12:21:07;;;;;;;;;;;12.00;99.90;;;;;;5046813;28;19917;-67
2021/12/30 12:23:34;;;;;;;;;;;12.00;99.90;;;;;;5049958;28;19913;-68
2021/12/30 12:26:08;;;;;;;;;;;12.00;99.90;;;;;;5044537;28;19956;-67
2021/12/30 12:28:34;;;;;;;;;;;12.00;99.90;;;;;;5045251;28;19978;-68
2021/12/30 12:31:00;;;;;;;;;;;12.00;99.90;;;;;;5043145;28;20600;-67
2021/12/30 12:33:29;;;;;;;;;;;12.00;99.90;;;;;;5046685;28;19921;-68
2021/12/30 12:35:55;;;;;;;;;;;12.00;99.90;;;;;;5040422;28;20329;-68
2021/12/30 12:38:36;;;;;;;;;;;12.00;99.90;;;;;;5047439;28;19909;-68
2021/12/30 12:41:14;;;;;;;;;;;12.00;99.90;;;;;;5043200;28;20320;-68
2021/12/30 12:43:40;;;;;;;;;;;12.00;99.90;;;;;;5056833;28;19967;-67
2021/12/30 12:46:05;;;;;;;;;;;11.90;99.90;;;;;;5053288;28;19920;-68
2021/12/30 12:48:33;;;;;;;;;;;12.00;99.90;;;;;;5065520;28;19917;-68
2021/12/30 12:51:01;;;;;;;;;;;12.00;99.90;;;;;;5062799;28;19959;-67
2021/12/30 12:53:27;;;;;;;;;;;12.00;99.90;;;;;;5061236;28;19917;-67
2021/12/30 12:55:57;;;;;;;;;;;12.00;99.90;;;;;;5064553;28;19913;-67
2021/12/30 12:58:24;;;;;;;;;;;12.00;99.90;;;;;;5051995;28;19939;-68
2021/12/30 13:00:50;;;;;;;;;;;12.00;99.90;;;;;;5032947;28;20346;-68
2021/12/30 13:03:16;;;;;;;;;;;12.00;99.90;;;;;;5034097;28;20557;-67
2021/12/30 13:06:01;;;;;;;;;;;12.00;99.90;;;;;;5051356;28;20354;-68
2021/12/30 13:08:27;;;;;;;;;;;12.00;99.90;;;;;;5047181;28;19913;-67
2021/12/30 13:10:53;;;;;;;;;;;12.00;99.90;;;;;;5052650;28;20356;-68
2021/12/30 13:13:36;;;;;;;;;;;12.10;99.90;;;;;;5047391;28;19917;-67
2021/12/30 13:16:06;;;;;;;;;;;12.10;99.90;;;;;;5047645;28;20256;-68
2021/12/30 13:18:33;;;;;;;;;;;12.10;99.90;;;;;;5048571;28;19920;-68
2021/12/30 13:21:12;;;;;;;;;;;12.00;99.90;;;;;;5053075;28;20531;-67
2021/12/30 13:23:37;;;;;;;;;;;12.10;99.90;;;;;;5052048;28;19921;-67
2021/12/30 13:26:07;;;;;;;;;;;12.10;99.90;;;;;;5049973;28;19921;-68
2021/12/30 13:28:44;;;;;;;;;;;12.10;99.90;;;;;;5049753;28;19913;-68
2021/12/30 13:31:14;;;;;;;;;;;12.10;99.90;;;;;;5053035;28;19909;-67
2021/12/30 13:33:51;;;;;;;;;;;12.20;99.90;;;;;;5054655;28;20012;-68
2021/12/30 13:36:16;;;;;;;;;;;12.10;99.90;;;;;;5048978;28;20010;-68
2021/12/30 13:38:42;;;;;;;;;;;12.20;99.90;;;;;;5052335;28;19952;-67
2021/12/30 13:41:12;;;;;;;;;;;12.20;99.90;;;;;;5051324;28;19970;-68
2021/12/30 13:43:37;;;;;;;;;;;12.20;99.90;;;;;;5048662;28;19924;-67
2021/12/30 13:46:03;;;;;;;;;;;12.10;99.90;;;;;;5051768;28;20002;-67
2021/12/30 13:48:29;;;;;;;;;;;12.20;99.90;;;;;;5024891;28;19914;-67
2021/12/30 13:50:59;;;;;;;;;;;12.20;99.90;;;;;;5052161;28;19987;-67
2021/12/30 13:53:26;;;;;;;;;;;12.20;99.90;;;;;;5049506;28;19943;-68
2021/12/30 13:55:54;;;;;;;;;;;12.20;99.90;;;;;;5051011;28;19913;-67
2021/12/30 13:58:22;;;;;;;;;;;12.20;99.90;;;;;;5049210;28;19995;-68
2021/12/30 14:00:55;;;;;;;;;;;12.20;99.90;;;;;;5050823;28;20359;-67
2021/12/30 14:03:25;;;;;;;;;;;12.20;99.90;;;;;;5049602;28;20011;-68
2021/12/30 14:05:51;;;;;;;;;;;12.20;99.90;;;;;;5065011;28;20510;-67
2021/12/30 14:08:21;;;;;;;;;;;12.20;99.90;;;;;;5052570;28;19909;-67
2021/12/30 14:10:51;;;;;;;;;;;12.20;99.90;;;;;;5049065;28;19912;-68
2021/12/30 14:13:17;;;;;;;;;;;12.10;99.90;;;;;;5049416;28;21001;-68
2021/12/30 14:15:44;;;;;;;;;;;12.20;99.90;;;;;;5029240;28;19917;-67
2021/12/30 14:18:10;;;;;;;;;;;12.10;99.90;;;;;;5047228;28;19956;-67
2021/12/30 14:20:37;;;;;;;;;;;12.10;99.90;;;;;;5047605;28;19950;-67